Time;durP1;ratioP1;P1;durP2;ratioP2;P2;SDS_P1;SDS_P2;PMS_P1;PMS_P2;Temp;Humidity;BMP_temperature;BMP_pressure;BME280_temperature;BME280_humidity;BME280_pressure;Samples;Min_cycle;Max_cycle;Signal;HPM_P1;HPM_P2
2022/05/30 00:00:43;;;;;;;0.10;0.08;;;22.30;96.70;;;;;;5027049;28;20506;-78
2022/05/30 00:03:12;;;;;;;0.05;0.00;;;22.30;96.70;;;;;;5034118;28;20072;-78
2022/05/30 00:05:45;;;;;;;0.15;0.00;;;22.30;96.70;;;;;;5040177;28;20103;-78
2022/05/30 00:08:15;;;;;;;0.38;0.10;;;22.30;96.70;;;;;;5033763;28;20037;-78
2022/05/30 00:10:44;;;;;;;0.80;0.20;;;22.20;96.70;;;;;;5039503;28;20998;-78
2022/05/30 00:13:14;;;;;;;0.50;0.03;;;22.30;96.70;;;;;;5037049;28;20045;-79
2022/05/30 00:15:42;;;;;;;1.55;0.43;;;22.10;96.70;;;;;;5037869;28;20538;-79
2022/05/30 00:18:12;;;;;;;0.10;0.10;;;22.20;96.70;;;;;;5025485;28;20388;-80
2022/05/30 00:20:44;;;;;;;0.38;0.00;;;22.10;96.70;;;;;;5035337;28;20061;-80
2022/05/30 00:23:13;;;;;;;0.43;0.00;;;21.90;96.70;;;;;;5034918;28;20053;-80
2022/05/30 00:25:42;;;;;;;0.38;0.00;;;22.00;96.70;;;;;;5039930;28;20305;-80
2022/05/30 00:28:10;;;;;;;1.35;0.10;;;22.00;96.70;;;;;;5037822;28;20447;-79
2022/05/30 00:30:40;;;;;;;0.22;0.03;;;21.90;96.70;;;;;;5035722;28;20045;-79
2022/05/30 00:33:08;;;;;;;1.40;0.10;;;21.90;96.70;;;;;;5035096;28;20049;-79
2022/05/30 00:35:36;;;;;;;1.35;0.10;;;21.80;96.70;;;;;;5042048;28;20056;-79
2022/05/30 00:38:06;;;;;;;1.60;0.10;;;21.90;96.70;;;;;;5040968;28;20114;-80
2022/05/30 00:40:35;;;;;;;0.30;0.10;;;21.90;96.70;;;;;;5040818;28;20033;-79
2022/05/30 00:43:22;;;;;;;0.40;0.20;;;22.00;96.70;;;;;;5034880;28;20533;-79
2022/05/30 00:45:52;;;;;;;1.65;0.10;;;22.00;96.70;;;;;;5017746;28;20072;-79
2022/05/30 00:48:24;;;;;;;1.50;0.10;;;22.00;96.70;;;;;;5034203;28;20053;-79
2022/05/30 00:50:57;;;;;;;0.47;0.10;;;22.10;96.70;;;;;;5019957;28;20755;-80
2022/05/30 00:53:26;;;;;;;0.95;0.10;;;22.20;96.70;;;;;;5038242;28;20051;-80
2022/05/30 00:55:57;;;;;;;0.25;0.00;;;22.20;96.70;;;;;;5031503;28;20140;-79
2022/05/30 00:58:27;;;;;;;0.93;0.05;;;22.20;96.70;;;;;;5019866;28;20045;-80
2022/05/30 01:00:57;;;;;;;0.00;0.00;;;22.10;96.70;;;;;;5035905;28;20055;-79
2022/05/30 01:06:31;;;;;;;1.15;0.10;;;22.00;96.70;;;;;;5033173;28;20118;-79
2022/05/30 01:09:01;;;;;;;0.95;0.20;;;22.00;96.70;;;;;;5036226;28;20068;-79
2022/05/30 01:11:48;;;;;;;0.13;0.08;;;21.80;96.70;;;;;;5031564;28;20076;-80
2022/05/30 01:14:16;;;;;;;0.17;0.10;;;21.80;96.70;;;;;;5018764;28;20570;-79
2022/05/30 01:16:46;;;;;;;0.10;0.00;;;21.70;96.70;;;;;;5021006;28;20051;-79
2022/05/30 01:19:42;;;;;;;1.10;0.08;;;21.70;96.70;;;;;;5033159;28;20753;-79
2022/05/30 01:22:54;;;;;;;0.50;0.40;;;21.80;96.70;;;;;;5033599;28;20057;-79
2022/05/30 01:25:45;;;;;;;0.22;0.10;;;21.70;96.70;;;;;;5034970;28;20041;-80
2022/05/30 01:28:44;;;;;;;0.93;0.20;;;21.80;96.70;;;;;;5019362;28;20103;-79
2022/05/30 01:31:14;;;;;;;0.47;0.10;;;21.80;96.70;;;;;;5021053;28;20142;-79
2022/05/30 01:33:44;;;;;;;1.60;0.10;;;21.80;96.70;;;;;;5019609;28;20080;-79
2022/05/30 01:36:12;;;;;;;0.10;0.00;;;21.70;96.70;;;;;;5031544;28;20048;-79
2022/05/30 01:38:41;;;;;;;0.75;0.10;;;21.70;96.70;;;;;;5022591;28;20080;-79
2022/05/30 01:41:12;;;;;;;0.22;0.15;;;21.70;96.70;;;;;;5037335;28;20493;-79
2022/05/30 01:43:41;;;;;;;0.50;0.10;;;21.60;96.70;;;;;;5035061;28;20053;-80
2022/05/30 01:46:12;;;;;;;0.30;0.10;;;21.50;96.70;;;;;;5017404;28;20140;-80
2022/05/30 01:48:46;;;;;;;0.20;0.20;;;21.50;96.70;;;;;;5034109;28;20054;-79
2022/05/30 01:51:16;;;;;;;0.30;0.20;;;21.50;96.70;;;;;;5035509;28;20048;-79
2022/05/30 01:53:46;;;;;;;0.63;0.20;;;21.50;96.70;;;;;;5017611;28;20045;-79
2022/05/30 01:56:20;;;;;;;0.80;0.10;;;21.50;96.70;;;;;;5032257;28;20064;-80
2022/05/30 01:58:53;;;;;;;0.32;0.20;;;21.60;96.70;;;;;;5021524;28;20053;-79
2022/05/30 02:01:42;;;;;;;0.50;0.20;;;21.60;96.70;;;;;;5045092;28;20457;-80
2022/05/30 02:04:12;;;;;;;0.10;0.10;;;21.60;96.70;;;;;;5035638;28;20156;-79
2022/05/30 02:06:40;;;;;;;0.70;0.10;;;21.70;96.70;;;;;;5033070;28;20057;-79
2022/05/30 02:09:09;;;;;;;0.30;0.20;;;21.60;96.70;;;;;;5035083;28;20069;-79
2022/05/30 02:11:37;;;;;;;1.23;0.20;;;21.50;96.70;;;;;;5020783;28;20470;-80
2022/05/30 02:14:29;;;;;;;0.77;0.13;;;21.50;96.70;;;;;;5035263;28;20056;-79
2022/05/30 02:17:06;;;;;;;0.43;0.20;;;21.70;96.70;;;;;;5024783;28;20144;-79
2022/05/30 02:19:38;;;;;;;0.75;0.20;;;21.80;96.70;;;;;;5037747;28;20053;-79
2022/05/30 02:22:12;;;;;;;0.30;0.20;;;21.90;96.70;;;;;;5036722;28;20053;-80
2022/05/30 02:24:40;;;;;;;0.35;0.15;;;21.80;96.70;;;;;;5035208;28;20139;-79
2022/05/30 02:27:11;;;;;;;0.20;0.10;;;21.80;96.70;;;;;;5017084;28;20048;-79
2022/05/30 02:29:42;;;;;;;0.57;0.20;;;21.90;96.70;;;;;;5033487;28;20060;-79
2022/05/30 02:32:14;;;;;;;1.08;0.30;;;21.80;96.70;;;;;;5018746;28;20048;-79
2022/05/30 02:37:29;;;;;;;0.35;0.15;;;21.80;96.70;;;;;;5031776;28;20049;-79
2022/05/30 02:40:04;;;;;;;0.57;0.13;;;21.80;96.70;;;;;;5035766;28;20495;-80
2022/05/30 02:42:55;;;;;;;1.77;0.20;;;21.70;96.70;;;;;;5019389;28;20060;-79
2022/05/30 02:45:25;;;;;;;1.23;0.20;;;21.60;96.70;;;;;;5046764;28;20525;-80
2022/05/30 02:47:53;;;;;;;0.60;0.20;;;21.40;96.70;;;;;;5023372;28;20068;-79
2022/05/30 02:50:21;;;;;;;0.63;0.25;;;21.30;96.70;;;;;;5026222;28;20067;-79
2022/05/30 02:52:48;;;;;;;2.05;0.25;;;21.20;96.70;;;;;;5026137;28;20526;-79
2022/05/30 02:55:22;;;;;;;1.02;0.20;;;21.10;96.70;;;;;;5044030;28;20505;-79
2022/05/30 02:57:51;;;;;;;1.10;0.20;;;21.10;96.70;;;;;;5017595;28;20076;-79
2022/05/30 03:00:26;;;;;;;0.40;0.20;;;21.00;96.70;;;;;;5021777;28;20075;-80
2022/05/30 03:03:02;;;;;;;0.88;0.20;;;21.10;96.70;;;;;;5026044;28;20537;-79
2022/05/30 03:05:30;;;;;;;1.92;0.40;;;21.20;96.70;;;;;;5044062;28;20053;-80
2022/05/30 03:08:03;;;;;;;0.20;0.17;;;21.20;96.70;;;;;;5035356;28;20076;-79
2022/05/30 03:10:50;;;;;;;1.98;0.40;;;21.10;96.70;;;;;;5040562;28;20119;-79
2022/05/30 03:13:18;;;;;;;0.70;0.20;;;21.00;96.70;;;;;;5040733;28;20045;-79
2022/05/30 03:15:46;;;;;;;2.08;0.50;;;21.10;96.70;;;;;;5020471;28;20041;-80
2022/05/30 03:18:16;;;;;;;0.95;0.22;;;21.10;96.70;;;;;;5021406;28;20462;-80
2022/05/30 03:20:44;;;;;;;0.98;0.50;;;21.10;96.70;;;;;;5032538;28;20041;-80
2022/05/30 03:23:12;;;;;;;1.30;0.30;;;21.00;96.70;;;;;;5036373;28;20519;-80
2022/05/30 03:26:02;;;;;;;0.90;0.30;;;21.00;96.70;;;;;;5038504;28;20507;-80
2022/05/30 03:28:31;;;;;;;0.85;0.30;;;21.10;96.70;;;;;;5026695;28;20050;-79
2022/05/30 03:31:01;;;;;;;1.50;0.28;;;21.10;96.70;;;;;;5019094;28;20457;-80
2022/05/30 03:33:36;;;;;;;0.40;0.30;;;21.00;96.70;;;;;;5028933;28;20041;-78
2022/05/30 03:36:10;;;;;;;0.98;0.30;;;20.90;96.70;;;;;;5041036;28;20542;-80
2022/05/30 03:38:57;;;;;;;0.75;0.32;;;20.90;96.70;;;;;;5041991;28;20100;-80
2022/05/30 03:41:43;;;;;;;1.35;0.68;;;21.00;96.70;;;;;;5041544;28;20525;-80
2022/05/30 03:44:44;;;;;;;0.95;0.30;;;20.90;96.70;;;;;;5034805;28;20096;-79
2022/05/30 03:47:12;;;;;;;0.55;0.30;;;21.00;96.70;;;;;;5021346;28;20053;-80
2022/05/30 03:49:41;;;;;;;0.20;0.20;;;21.00;96.70;;;;;;5018964;28;20140;-81
2022/05/30 03:52:10;;;;;;;0.30;0.10;;;20.90;96.70;;;;;;5024789;28;20051;-81
2022/05/30 03:54:39;;;;;;;1.75;0.20;;;20.80;96.70;;;;;;5035674;28;20553;-80
2022/05/30 03:57:07;;;;;;;0.32;0.20;;;20.90;96.70;;;;;;5041209;28;20382;-80
2022/05/30 03:59:35;;;;;;;1.77;0.35;;;20.80;96.70;;;;;;5019005;28;20052;-80
2022/05/30 04:02:04;;;;;;;1.45;0.30;;;20.80;96.70;;;;;;5045521;28;20051;-80
2022/05/30 04:04:31;;;;;;;0.80;0.30;;;20.90;96.70;;;;;;5035979;28;20094;-79
2022/05/30 04:07:02;;;;;;;0.75;0.25;;;20.90;96.70;;;;;;5034120;28;20161;-80
2022/05/30 04:09:36;;;;;;;1.00;0.30;;;20.90;96.70;;;;;;5040696;28;20962;-80
2022/05/30 04:12:23;;;;;;;0.88;0.30;;;20.90;96.70;;;;;;5036002;28;20106;-79
2022/05/30 04:15:26;;;;;;;0.30;0.20;;;21.10;96.70;;;;;;5034483;28;20679;-79
2022/05/30 04:17:55;;;;;;;1.10;0.28;;;21.20;96.70;;;;;;5037574;28;20356;-80
2022/05/30 04:20:24;;;;;;;0.82;0.30;;;21.20;96.70;;;;;;5041854;28;20136;-80
2022/05/30 04:22:53;;;;;;;2.92;0.30;;;21.20;96.70;;;;;;5013903;28;20033;-79
2022/05/30 04:25:24;;;;;;;1.38;0.30;;;21.00;96.70;;;;;;5036241;28;20045;-80
2022/05/30 04:27:52;;;;;;;1.23;0.30;;;21.00;96.70;;;;;;5039128;28;20045;-80
2022/05/30 04:30:20;;;;;;;2.40;0.20;;;21.10;96.70;;;;;;5041458;28;20068;-80
2022/05/30 04:32:50;;;;;;;2.45;0.40;;;21.00;96.70;;;;;;5023147;28;20042;-80
2022/05/30 04:35:19;;;;;;;3.33;0.30;;;20.90;96.70;;;;;;5035409;28;20049;-80
2022/05/30 04:37:49;;;;;;;1.23;0.50;;;20.90;96.70;;;;;;5031383;28;20045;-80
2022/05/30 04:40:35;;;;;;;1.17;0.30;;;20.80;96.70;;;;;;5043040;28;20049;-80
2022/05/30 04:43:23;;;;;;;1.83;0.28;;;21.00;96.70;;;;;;5033899;28;20982;-80
2022/05/30 04:46:24;;;;;;;2.05;0.40;;;21.00;96.70;;;;;;5038279;28;20507;-81
2022/05/30 04:48:53;;;;;;;0.93;0.52;;;21.00;96.70;;;;;;5036005;28;20045;-80
2022/05/30 04:51:22;;;;;;;1.02;0.40;;;21.10;96.70;;;;;;5037373;28;20048;-80
2022/05/30 04:53:51;;;;;;;0.80;0.38;;;21.00;96.70;;;;;;5045197;28;20037;-80
2022/05/30 04:56:44;;;;;;;0.80;0.55;;;20.90;96.70;;;;;;5033951;28;20048;-80
2022/05/30 04:59:22;;;;;;;0.85;0.35;;;21.10;96.70;;;;;;5025498;28;20049;-81
2022/05/30 05:01:51;;;;;;;1.10;0.22;;;20.90;96.70;;;;;;5032326;28;20143;-80
2022/05/30 05:04:20;;;;;;;1.63;0.32;;;20.90;96.70;;;;;;5029454;28;20044;-81
2022/05/30 05:06:49;;;;;;;1.48;0.30;;;21.10;96.70;;;;;;5034304;28;20039;-80
2022/05/30 05:09:39;;;;;;;1.25;0.30;;;21.30;96.70;;;;;;5038658;28;20514;-80
2022/05/30 05:12:34;;;;;;;0.45;0.35;;;21.30;96.70;;;;;;5037625;28;20140;-81
2022/05/30 05:15:41;;;;;;;2.15;0.50;;;21.30;96.70;;;;;;5018699;28;20594;-80
2022/05/30 05:18:13;;;;;;;0.95;0.38;;;21.30;96.70;;;;;;5006823;28;20076;-80
2022/05/30 05:20:42;;;;;;;2.22;0.80;;;21.20;96.70;;;;;;5016709;28;20091;-80
2022/05/30 05:23:13;;;;;;;2.47;0.57;;;21.30;96.70;;;;;;5040642;28;20510;-80
2022/05/30 05:25:55;;;;;;;1.27;0.70;;;21.40;96.70;;;;;;5017423;28;20045;-80
2022/05/30 05:28:51;;;;;;;3.05;0.90;;;21.40;96.70;;;;;;5035300;28;20056;-80
2022/05/30 05:31:22;;;;;;;2.92;0.75;;;21.20;96.70;;;;;;5036314;28;20128;-80
2022/05/30 05:33:52;;;;;;;2.92;1.08;;;21.20;96.70;;;;;;5033342;28;20053;-80
2022/05/30 05:36:21;;;;;;;2.90;0.93;;;21.20;96.70;;;;;;5022229;28;20044;-80
2022/05/30 05:38:49;;;;;;;3.13;0.70;;;21.20;96.70;;;;;;5040802;28;20057;-80
2022/05/30 05:41:42;;;;;;;2.97;0.80;;;21.20;96.70;;;;;;5033901;28;20126;-80
2022/05/30 05:44:18;;;;;;;4.38;0.77;;;21.30;96.70;;;;;;5041822;28;20068;-80
2022/05/30 05:46:48;;;;;;;2.83;0.63;;;21.40;96.70;;;;;;5047853;28;20049;-80
2022/05/30 05:49:18;;;;;;;2.72;0.57;;;21.50;96.70;;;;;;5033592;28;20060;-80
2022/05/30 05:51:52;;;;;;;2.05;0.60;;;21.40;96.70;;;;;;5039548;28;20306;-80
2022/05/30 05:54:25;;;;;;;2.15;0.52;;;21.50;96.70;;;;;;5035026;28;20079;-80
2022/05/30 05:56:56;;;;;;;1.48;0.63;;;21.40;96.70;;;;;;5041195;28;20056;-80
2022/05/30 05:59:31;;;;;;;2.22;0.60;;;21.40;96.70;;;;;;5030187;28;20050;-80
2022/05/30 06:01:59;;;;;;;0.95;0.45;;;21.60;96.70;;;;;;5033880;28;20507;-81
2022/05/30 06:04:29;;;;;;;2.72;0.60;;;21.70;96.70;;;;;;5033174;28;20049;-81
2022/05/30 06:07:18;;;;;;;1.42;0.60;;;21.70;96.70;;;;;;5022606;28;20102;-80
2022/05/30 06:10:02;;;;;;;3.50;0.88;;;21.80;96.70;;;;;;5033410;28;20068;-81
2022/05/30 06:12:42;;;;;;;4.32;0.90;;;21.90;96.70;;;;;;5031211;28;20056;-81
2022/05/30 06:15:15;;;;;;;2.47;0.88;;;21.80;96.70;;;;;;5033570;28;20056;-81
2022/05/30 06:17:57;;;;;;;3.67;1.00;;;22.00;96.70;;;;;;5038396;28;20045;-80
2022/05/30 06:20:26;;;;;;;2.10;0.70;;;22.20;96.70;;;;;;5025771;28;20561;-80
2022/05/30 06:22:54;;;;;;;2.60;0.75;;;22.30;96.70;;;;;;5033298;28;20037;-80
2022/05/30 06:25:42;;;;;;;5.32;0.60;;;22.30;96.70;;;;;;5030151;28;20068;-80
2022/05/30 06:28:29;;;;;;;2.30;0.60;;;22.30;96.70;;;;;;5039564;28;20052;-80
2022/05/30 06:31:10;;;;;;;2.40;0.60;;;22.30;96.70;;;;;;5040536;28;20506;-80
2022/05/30 06:33:40;;;;;;;3.03;0.60;;;22.40;96.70;;;;;;5031734;28;20083;-80
2022/05/30 06:36:14;;;;;;;3.28;0.50;;;22.40;96.70;;;;;;5036013;28;20126;-81
2022/05/30 06:38:44;;;;;;;2.60;0.60;;;22.60;96.70;;;;;;5039499;28;20048;-81
2022/05/30 06:41:22;;;;;;;3.20;1.13;;;22.90;96.70;;;;;;5040871;28;20099;-81
2022/05/30 06:43:57;;;;;;;3.38;0.70;;;22.90;96.70;;;;;;5023141;28;20060;-81
2022/05/30 06:46:46;;;;;;;1.50;0.63;;;22.90;96.70;;;;;;5032516;28;20064;-81
2022/05/30 06:49:39;;;;;;;1.80;0.43;;;22.80;96.70;;;;;;5037073;28;20523;-79
2022/05/30 06:52:12;;;;;;;2.90;0.70;;;22.90;96.70;;;;;;5018613;28;20052;-81
2022/05/30 06:54:40;;;;;;;2.97;0.75;;;22.90;96.70;;;;;;5012645;28;20073;-80
2022/05/30 06:59:57;;;;;;;3.38;0.73;;;23.10;96.70;;;;;;5030054;28;20088;-81
2022/05/30 07:02:27;;;;;;;2.70;0.85;;;23.10;96.70;;;;;;5029180;28;20049;-81
2022/05/30 07:05:08;;;;;;;4.82;0.80;;;23.20;96.70;;;;;;5039586;28;20052;-81
2022/05/30 07:08:14;;;;;;;2.75;0.93;;;23.20;96.70;;;;;;5033618;28;20044;-81
2022/05/30 07:11:10;;;;;;;2.47;0.70;;;23.20;96.70;;;;;;5011655;28;20048;-87
2022/05/30 07:13:39;;;;;;;2.88;0.70;;;23.30;96.70;;;;;;5014113;28;20053;-80
2022/05/30 07:16:09;;;;;;;2.30;0.73;;;23.20;96.70;;;;;;5027920;28;20037;-78
2022/05/30 07:18:39;;;;;;;5.63;1.60;;;23.30;96.70;;;;;;5022313;28;20052;-78
2022/05/30 07:21:10;;;;;;;3.92;1.33;;;23.30;96.70;;;;;;5042323;28;20081;-78
2022/05/30 07:23:57;;;;;;;4.60;1.50;;;23.30;96.70;;;;;;5033937;28;20095;-79
2022/05/30 07:26:44;;;;;;;3.70;1.23;;;23.30;96.70;;;;;;5041425;28;20055;-78
2022/05/30 07:29:31;;;;;;;2.97;1.42;;;23.20;96.70;;;;;;5045226;28;20100;-79
2022/05/30 07:32:18;;;;;;;5.25;1.50;;;23.40;96.70;;;;;;5040660;28;20705;-79
2022/05/30 07:35:06;;;;;;;;;;;23.40;96.70;;;;;;5035573;28;20048;-79
2022/05/30 07:37:53;;;;;;;2.35;1.20;;;23.50;96.70;;;;;;5040917;28;19935;-81
2022/05/30 07:40:44;;;;;;;3.45;1.17;;;23.60;96.70;;;;;;5033821;28;20525;-80
2022/05/30 07:43:36;;;;;;;4.35;1.60;;;23.60;96.70;;;;;;5034079;28;20397;-78
2022/05/30 07:46:23;;;;;;;2.75;1.05;;;23.60;96.70;;;;;;5040727;28;20249;-78
2022/05/30 07:49:07;;;;;;;4.03;1.10;;;23.50;96.70;;;;;;5032623;28;20052;-79
2022/05/30 07:51:48;;;;;;;2.80;1.20;;;23.40;96.70;;;;;;5021778;28;20052;-79
2022/05/30 07:54:27;;;;;;;4.95;0.90;;;23.40;96.70;;;;;;5032615;28;20076;-80
2022/05/30 07:57:17;;;;;;;6.13;1.50;;;23.40;96.70;;;;;;5037179;28;20061;-79
2022/05/30 07:59:46;;;;;;;3.22;1.02;;;23.30;96.70;;;;;;5038285;28;20546;-78
2022/05/30 08:02:14;;;;;;;3.42;1.20;;;23.40;96.70;;;;;;5020202;28;20079;-77
2022/05/30 08:04:44;;;;;;;5.15;1.40;;;23.60;96.70;;;;;;5034209;28;20057;-77
2022/05/30 08:07:32;;;;;;;3.27;1.23;;;23.80;96.70;;;;;;5039188;28;20099;-77
2022/05/30 08:10:30;;;;;;;4.93;1.27;;;23.50;96.70;;;;;;5028077;28;20373;-78
2022/05/30 08:12:58;;;;;;;3.80;1.20;;;23.50;96.70;;;;;;5015005;28;20052;-77
2022/05/30 08:15:43;;;;;;;4.75;1.17;;;23.50;96.70;;;;;;5021966;28;20149;-81
2022/05/30 08:18:19;;;;;;;5.10;1.35;;;23.40;96.70;;;;;;5023780;28;20045;-81
2022/05/30 08:20:51;;;;;;;4.60;1.30;;;23.40;96.70;;;;;;5022328;28;20046;-79
2022/05/30 08:23:23;;;;;;;5.60;1.65;;;23.40;96.70;;;;;;5026206;28;20071;-81
2022/05/30 08:25:53;;;;;;;4.47;1.35;;;23.40;96.70;;;;;;5021391;28;20053;-81
2022/05/30 08:28:25;;;;;;;5.43;1.60;;;23.50;96.70;;;;;;5025486;28;20446;-82
2022/05/30 08:30:54;;;;;;;5.40;1.27;;;23.60;96.70;;;;;;5012306;28;20044;-87
2022/05/30 08:33:41;;;;;;;4.10;1.50;;;23.70;96.70;;;;;;5046777;28;20053;-86
2022/05/30 08:36:39;;;;;;;4.43;1.65;;;23.60;96.70;;;;;;4987794;28;20696;-85
2022/05/30 08:42:00;;;;;;;5.38;1.70;;;24.10;96.70;;;;;;4977424;28;20440;-86
2022/05/30 08:44:51;;;;;;;4.22;1.50;;;24.20;96.70;;;;;;4971650;28;20054;-86
2022/05/30 08:47:47;;;;;;;4.75;1.60;;;24.10;96.70;;;;;;4976729;28;20548;-87
2022/05/30 08:50:22;;;;;;;6.88;1.55;;;24.10;96.70;;;;;;4959763;28;20529;-86
2022/05/30 08:53:09;;;;;;;5.70;1.85;;;24.30;96.70;;;;;;4987326;28;20089;-89
2022/05/30 08:55:47;;;;;;;4.13;1.58;;;24.30;96.70;;;;;;4986639;28;20050;-91
2022/05/30 08:58:46;;;;;;;6.47;1.80;;;24.20;96.70;;;;;;4968134;28;20050;-87
2022/05/30 09:01:20;;;;;;;3.30;1.45;;;24.40;96.70;;;;;;4977488;28;20050;-85
2022/05/30 09:04:31;;;;;;;3.40;1.50;;;24.60;96.70;;;;;;4987839;28;20069;-88
2022/05/30 09:07:02;;;;;;;3.78;1.92;;;24.80;96.70;;;;;;4954281;28;20046;-79
2022/05/30 09:09:45;;;;;;;7.18;1.60;;;24.80;96.70;;;;;;4971948;28;20194;-78
2022/05/30 09:12:38;;;;;;;7.90;1.67;;;24.80;96.70;;;;;;4983562;28;20525;-79
2022/05/30 09:15:34;;;;;;;6.57;1.70;;;24.60;96.70;;;;;;5033430;28;20530;-84
2022/05/30 09:18:10;;;;;;;5.55;1.60;;;24.60;96.70;;;;;;5041751;28;20135;-82
2022/05/30 09:20:41;;;;;;;4.47;1.60;;;24.60;96.70;;;;;;5042360;28;20130;-82
2022/05/30 09:23:18;;;;;;;5.67;1.67;;;24.70;96.70;;;;;;5024540;28;20148;-82
2022/05/30 09:26:07;;;;;;;7.88;1.95;;;24.80;96.70;;;;;;5024098;28;20405;-82
2022/05/30 09:28:44;;;;;;;3.75;1.50;;;24.70;96.70;;;;;;5043786;28;20052;-82
2022/05/30 09:31:42;;;;;;;5.90;1.52;;;24.80;96.70;;;;;;5035695;28;20130;-83
2022/05/30 09:34:35;;;;;;;6.80;1.60;;;25.00;96.70;;;;;;5040958;28;20037;-85
2022/05/30 09:37:28;;;;;;;6.45;1.50;;;25.10;96.70;;;;;;5047211;28;20079;-85
2022/05/30 09:40:19;;;;;;;4.63;1.45;;;25.20;96.70;;;;;;5031153;28;20091;-86
2022/05/30 09:43:12;;;;;;;4.55;1.42;;;25.30;96.70;;;;;;5026558;28;20065;-85
2022/05/30 09:45:42;;;;;;;9.07;2.20;;;25.40;96.70;;;;;;5052310;28;20045;-81
2022/05/30 09:48:13;;;;;;;7.38;1.30;;;25.40;96.70;;;;;;5038237;28;20065;-82
2022/05/30 09:50:48;;;;;;;4.00;1.75;;;25.30;96.70;;;;;;5031442;28;20045;-82
2022/05/30 09:53:41;;;;;;;6.05;1.83;;;25.10;96.70;;;;;;5018903;28;20052;-82
2022/05/30 09:56:14;;;;;;;3.88;1.50;;;25.00;96.70;;;;;;5023367;28;20045;-85
2022/05/30 09:58:47;;;;;;;5.50;1.75;;;25.30;96.70;;;;;;5023961;28;20053;-85
2022/05/30 10:01:37;;;;;;;5.78;1.80;;;25.40;96.70;;;;;;5059847;28;20087;-84
2022/05/30 10:04:28;;;;;;;5.93;1.70;;;25.60;96.70;;;;;;5035924;28;20053;-82
2022/05/30 10:07:09;;;;;;;5.45;1.75;;;25.70;96.70;;;;;;5042223;28;20399;-85
2022/05/30 10:10:03;;;;;;;7.68;1.95;;;25.70;96.70;;;;;;5025448;28;20500;-79
2022/05/30 10:12:41;;;;;;;9.90;2.20;;;25.40;96.70;;;;;;5035042;28;20053;-80
2022/05/30 10:15:24;;;;;;;10.02;2.47;;;25.20;96.70;;;;;;5035287;28;20076;-80
2022/05/30 10:18:16;;;;;;;;;;;25.20;96.70;;;;;;5020829;28;20049;-80
2022/05/30 10:20:54;;;;;;;4.95;1.83;;;25.40;96.70;;;;;;5052664;28;19928;-79
2022/05/30 10:30:28;;;;;;;4.10;1.48;;;26.00;96.70;;;;;;5025859;28;20499;-81
2022/05/30 10:33:45;;;;;;;6.88;1.88;;;26.00;96.70;;;;;;5024612;28;20071;-79
2022/05/30 10:36:20;;;;;;;4.88;1.52;;;26.00;96.70;;;;;;5023891;28;20080;-80
2022/05/30 10:39:02;;;;;;;8.65;1.90;;;26.00;96.70;;;;;;5041147;28;20442;-81
2022/05/30 10:41:41;;;;;;;4.40;1.45;;;26.00;96.70;;;;;;5031408;28;20311;-80
2022/05/30 10:44:17;;;;;;;8.63;2.20;;;26.10;96.70;;;;;;5031701;28;20447;-80
2022/05/30 10:46:55;;;;;;;6.30;1.80;;;26.10;96.70;;;;;;5039890;28;20053;-80
2022/05/30 10:49:35;;;;;;;6.63;1.92;;;26.20;96.70;;;;;;5035939;28;20075;-80
2022/05/30 10:52:14;;;;;;;6.47;1.60;;;26.50;96.70;;;;;;5022817;28;20050;-81
2022/05/30 10:54:55;;;;;;;5.70;1.75;;;26.60;96.70;;;;;;5057329;28;20053;-80
2022/05/30 10:57:34;;;;;;;4.75;1.75;;;26.70;96.70;;;;;;5038204;28;20049;-80
2022/05/30 11:00:09;;;;;;;7.20;2.38;;;27.00;96.70;;;;;;5032620;28;20048;-81
2022/05/30 11:02:50;;;;;;;4.78;1.63;;;27.10;96.70;;;;;;5029071;28;20443;-81
2022/05/30 11:05:24;;;;;;;4.90;1.63;;;27.30;96.70;;;;;;5034222;28;20053;-80
2022/05/30 11:08:00;;;;;;;6.43;1.65;;;27.30;96.70;;;;;;5041326;28;20053;-80
2022/05/30 11:10:40;;;;;;;7.00;2.10;;;27.00;96.70;;;;;;5033698;28;20127;-80
2022/05/30 11:13:37;;;;;;;5.43;1.63;;;26.70;96.70;;;;;;5020485;28;20049;-80
2022/05/30 11:16:36;;;;;;;7.03;2.03;;;27.10;96.70;;;;;;5041753;28;20107;-78
2022/05/30 11:19:30;;;;;;;4.47;1.73;;;27.20;96.70;;;;;;5041739;28;20462;-78
2022/05/30 11:22:36;;;;;;;7.15;1.70;;;27.40;96.70;;;;;;5035886;28;20053;-77
2022/05/30 11:25:12;;;;;;;6.78;2.10;;;27.20;96.70;;;;;;5016259;28;20057;-78
2022/05/30 11:27:41;;;;;;;8.15;2.13;;;27.10;96.70;;;;;;5018043;28;20166;-79
2022/05/30 11:30:31;;;;;;;7.20;1.90;;;27.10;96.70;;;;;;5035337;28;20143;-78
2022/05/30 11:33:46;;;;;;;4.70;1.60;;;27.00;96.70;;;;;;5034249;28;20045;-78
2022/05/30 11:36:27;;;;;;;6.63;2.13;;;26.80;96.70;;;;;;5004149;28;20127;-81
2022/05/30 11:39:07;;;;;;;6.07;1.67;;;26.80;96.70;;;;;;5041358;28;20058;-81
2022/05/30 11:41:46;;;;;;;5.15;1.58;;;26.70;96.70;;;;;;5034336;28;20401;-80
2022/05/30 11:44:39;;;;;;;6.13;2.00;;;26.80;96.70;;;;;;5034619;28;20134;-79
2022/05/30 11:47:26;;;;;;;5.40;1.70;;;26.80;96.70;;;;;;5034799;28;20502;-78
2022/05/30 11:50:07;;;;;;;8.40;1.98;;;26.50;96.70;;;;;;5020385;28;20423;-78
2022/05/30 11:53:05;;;;;;;4.80;1.70;;;26.90;96.70;;;;;;5037996;28;20053;-77
2022/05/30 11:55:41;;;;;;;9.60;2.15;;;27.20;96.70;;;;;;5039803;28;20877;-78
2022/05/30 11:58:14;;;;;;;7.30;2.40;;;27.60;96.70;;;;;;5036004;28;20046;-79
2022/05/30 12:00:45;;;;;;;4.97;1.83;;;27.60;96.70;;;;;;5036244;28;20051;-80
2022/05/30 12:03:44;;;;;;;5.45;1.90;;;27.20;96.70;;;;;;5033544;28;20056;-80
2022/05/30 12:06:47;;;;;;;6.45;1.60;;;27.40;96.70;;;;;;5031397;28;20144;-80
2022/05/30 12:09:41;;;;;;;5.20;2.00;;;27.20;96.70;;;;;;5034307;28;20061;-79
2022/05/30 12:12:32;;;;;;;7.80;2.00;;;27.10;96.70;;;;;;5039999;28;20538;-80
2022/05/30 12:15:29;;;;;;;5.57;2.05;;;27.30;96.70;;;;;;5023353;28;20049;-81
2022/05/30 12:24:21;;;;;;;9.02;1.90;;;27.20;96.70;;;;;;5039899;28;20121;-78
2022/05/30 12:26:58;;;;;;;5.80;1.67;;;27.60;96.70;;;;;;5038385;28;20542;-78
2022/05/30 12:29:52;;;;;;;4.63;1.13;;;27.60;96.70;;;;;;5034627;28;20113;-77
2022/05/30 12:32:43;;;;;;;4.85;1.60;;;27.80;96.70;;;;;;5035658;28;20491;-79
2022/05/30 12:35:26;;;;;;;5.10;1.65;;;28.00;96.70;;;;;;5038506;28;20483;-77
2022/05/30 12:38:13;;;;;;;5.07;1.63;;;28.10;96.70;;;;;;5035322;28;20037;-78
2022/05/30 12:40:54;;;;;;;3.47;1.35;;;28.10;96.70;;;;;;5035297;28;20119;-76
2022/05/30 12:43:35;;;;;;;4.22;1.60;;;28.00;96.70;;;;;;5041656;28;20041;-78
2022/05/30 12:46:22;;;;;;;4.72;1.90;;;27.80;96.70;;;;;;5032553;28;20070;-80
2022/05/30 12:49:27;;;;;;;6.82;1.80;;;27.80;96.70;;;;;;5037519;28;20053;-81
2022/05/30 12:52:02;;;;;;;7.00;1.90;;;28.10;96.70;;;;;;5015713;28;20053;-80
2022/05/30 12:54:45;;;;;;;8.27;1.98;;;28.30;96.70;;;;;;5043776;28;20048;-80
2022/05/30 12:57:35;;;;;;;5.72;2.05;;;28.10;96.70;;;;;;5039919;28;20045;-80
2022/05/30 13:00:14;;;;;;;6.13;1.98;;;27.90;96.70;;;;;;5034840;28;20102;-79
2022/05/30 13:03:09;;;;;;;5.20;2.13;;;27.80;96.70;;;;;;5041155;28;20080;-81
2022/05/30 13:06:00;;;;;;;6.95;1.80;;;28.10;96.70;;;;;;5007884;28;20124;-81
2022/05/30 13:09:07;;;;;;;4.75;1.58;;;28.50;96.70;;;;;;5039501;28;20127;-81
2022/05/30 13:12:18;;;;;;;7.03;2.00;;;28.90;96.70;;;;;;5031376;28;20254;-77
2022/05/30 13:15:16;;;;;;;6.93;1.80;;;29.00;96.70;;;;;;5026706;28;20598;-77
2022/05/30 13:17:51;;;;;;;5.80;1.50;;;28.40;96.70;;;;;;5030641;28;20522;-77
2022/05/30 13:20:21;;;;;;;5.70;1.45;;;28.60;96.70;;;;;;5030996;28;20475;-78
2022/05/30 13:22:54;;;;;;;5.05;1.92;;;28.60;96.70;;;;;;5039730;28;20041;-78
2022/05/30 13:25:27;;;;;;;6.65;1.90;;;28.70;96.70;;;;;;5034971;28;20095;-77
2022/05/30 13:28:01;;;;;;;7.82;2.80;;;28.90;96.70;;;;;;5020546;28;20052;-77
2022/05/30 13:30:30;;;;;;;7.30;1.90;;;29.20;96.70;;;;;;5018881;28;20315;-78
2022/05/30 13:32:57;;;;;;;9.65;1.85;;;29.00;96.70;;;;;;5034853;28;20036;-76
2022/05/30 13:35:29;;;;;;;6.50;1.75;;;29.40;96.70;;;;;;5030227;28;20069;-77
2022/05/30 13:38:00;;;;;;;5.78;1.73;;;29.40;96.70;;;;;;5032596;28;20053;-77
2022/05/30 13:40:30;;;;;;;5.53;1.50;;;29.50;96.70;;;;;;5040029;28;20110;-78
2022/05/30 13:43:00;;;;;;;5.10;1.77;;;29.80;96.70;;;;;;5037582;28;20518;-77
2022/05/30 13:45:49;;;;;;;6.88;1.63;;;30.20;96.50;;;;;;5030546;28;20057;-77
2022/05/30 13:48:19;;;;;;;6.45;1.80;;;30.30;95.90;;;;;;5039393;28;20392;-78
2022/05/30 13:50:58;;;;;;;5.97;2.20;;;29.60;96.10;;;;;;5034749;28;20419;-77
2022/05/30 13:53:38;;;;;;;7.03;2.20;;;29.70;96.70;;;;;;5049174;28;20594;-77
2022/05/30 13:56:10;;;;;;;7.50;2.30;;;30.00;96.50;;;;;;5032214;28;20057;-77
2022/05/30 13:58:45;;;;;;;6.93;2.47;;;29.90;96.70;;;;;;5017745;28;20403;-77
2022/05/30 14:01:15;;;;;;;5.85;1.90;;;30.10;96.70;;;;;;5028575;28;20482;-77
2022/05/30 14:03:48;;;;;;;3.70;1.63;;;30.20;95.40;;;;;;5035164;28;20068;-76
2022/05/30 14:06:27;;;;;;;8.00;1.70;;;30.00;96.00;;;;;;5035533;28;20434;-77
2022/05/30 14:08:58;;;;;;;5.45;2.08;;;30.10;95.80;;;;;;5033469;28;20056;-77
2022/05/30 14:11:35;;;;;;;6.30;1.80;;;29.20;96.70;;;;;;5034962;28;20037;-77